Time;durP1;ratioP1;P1;durP2;ratioP2;P2;SDS_P1;SDS_P2;PMS_P1;PMS_P2;Temp;Humidity;BMP_temperature;BMP_pressure;BME280_temperature;BME280_humidity;BME280_pressure;Samples;Min_cycle;Max_cycle;Signal;HPM_P1;HPM_P2
2024/01/24 00:00:32;;;;;;;;;1.00;1.00;;;;;10.77;86.43;99748.69;5095691;28;8830;-58
2024/01/24 00:03:00;;;;;;;;;3.25;3.00;;;;;10.81;86.13;99741.28;5095230;28;8854;-58
2024/01/24 00:05:28;;;;;;;;;4.00;3.25;;;;;10.86;86.19;99749.75;5098914;28;8825;-58
2024/01/24 00:07:56;;;;;;;;;0.00;0.00;;;;;10.93;86.66;99727.78;5098549;28;8895;-59
2024/01/24 00:10:23;;;;;;;;;4.00;4.00;;;;;11.00;86.16;99731.63;5096480;28;8887;-59
2024/01/24 00:12:51;;;;;;;;;2.50;2.50;;;;;11.06;85.87;99738.28;5116416;28;8808;-58
2024/01/24 00:15:19;;;;;;;;;3.00;1.50;;;;;11.09;86.31;99738.84;5116948;28;8835;-58
2024/01/24 00:17:47;;;;;;;;;3.00;1.50;;;;;11.14;86.02;99722.47;5116172;28;8828;-58
2024/01/24 00:20:14;;;;;;;;;1.00;1.00;;;;;11.17;86.47;99723.06;5116338;28;8924;-58
2024/01/24 00:22:42;;;;;;;;;2.00;0.50;;;;;11.23;86.01;99743.84;5114528;28;8820;-58
2024/01/24 00:25:10;;;;;;;;;0.50;0.25;;;;;11.27;86.04;99721.28;5116283;28;8816;-58
2024/01/24 00:27:38;;;;;;;;;3.50;3.00;;;;;11.30;86.05;99713.00;5116382;28;8812;-59
2024/01/24 00:30:05;;;;;;;;;1.00;1.00;;;;;11.32;86.65;99736.88;5116445;28;8828;-59
2024/01/24 00:32:33;;;;;;;;;1.50;0.00;;;;;11.34;86.51;99714.47;5116116;28;8838;-59
2024/01/24 00:35:01;;;;;;;;;1.00;1.00;;;;;11.37;86.46;99682.19;5116137;28;8811;-57
2024/01/24 00:37:29;;;;;;;;;3.00;2.50;;;;;11.39;86.37;99684.72;5116378;28;8832;-59
2024/01/24 00:39:56;;;;;;;;;1.00;1.00;;;;;11.41;86.55;99694.28;5109758;28;9998;-59
2024/01/24 00:42:24;;;;;;;;;3.00;3.00;;;;;11.43;86.41;99676.31;5075637;28;8820;-58
2024/01/24 00:44:52;;;;;;;;;1.00;1.00;;;;;11.46;86.52;99676.03;5075526;28;8851;-59
2024/01/24 00:47:20;;;;;;;;;1.00;1.00;;;;;11.51;86.19;99662.34;5074879;28;8917;-59
2024/01/24 00:49:48;;;;;;;;;1.50;1.00;;;;;11.54;86.77;99659.38;5075018;28;9546;-59
2024/01/24 00:52:15;;;;;;;;;0.00;0.00;;;;;11.57;86.30;99643.09;5075415;28;8840;-59
2024/01/24 00:54:43;;;;;;;;;1.00;1.00;;;;;11.60;86.83;99648.22;5075370;28;8866;-58
2024/01/24 00:57:11;;;;;;;;;2.00;2.00;;;;;11.61;86.96;99664.06;5075838;28;8863;-59
2024/01/24 00:59:39;;;;;;;;;0.75;0.75;;;;;11.65;86.94;99665.50;5083955;28;8802;-57
2024/01/24 01:02:07;;;;;;;;;1.00;1.00;;;;;11.71;86.92;99666.78;5099903;28;8821;-58
2024/01/24 01:04:35;;;;;;;;;0.75;0.75;;;;;11.75;86.34;99670.88;5099668;28;8942;-58
2024/01/24 01:07:03;;;;;;;;;0.50;0.50;;;;;11.81;86.23;99662.28;5100526;28;8826;-58
2024/01/24 01:09:31;;;;;;;;;1.50;1.50;;;;;11.88;86.19;99655.44;5106767;28;8826;-57
2024/01/24 01:11:58;;;;;;;;;0.25;0.00;;;;;11.91;85.70;99656.00;5119710;28;8877;-59
2024/01/24 01:14:26;;;;;;;;;0.00;0.00;;;;;11.94;86.09;99626.41;5096034;28;8844;-59
2024/01/24 01:16:54;;;;;;;;;1.00;1.00;;;;;11.96;86.14;99627.09;5078811;28;8945;-59
2024/01/24 01:19:22;;;;;;;;;0.00;0.00;;;;;11.94;85.74;99623.72;5079320;28;8831;-59
2024/01/24 01:21:50;;;;;;;;;1.00;1.00;;;;;11.94;86.03;99629.88;5077576;28;8812;-58
2024/01/24 01:24:18;;;;;;;;;1.50;1.00;;;;;11.94;86.30;99639.75;5078547;28;8826;-59
2024/01/24 01:26:46;;;;;;;;;1.00;1.00;;;;;11.94;86.29;99623.72;5111887;28;8900;-59
2024/01/24 01:29:13;;;;;;;;;1.00;1.00;;;;;11.97;86.20;99635.97;5119233;28;8881;-57
2024/01/24 01:31:41;;;;;;;;;1.00;1.00;;;;;11.98;86.54;99662.47;5098844;28;9620;-59
2024/01/24 01:34:09;;;;;;;;;2.00;2.00;;;;;12.00;86.81;99632.00;5078163;28;8824;-58
2024/01/24 01:36:37;;;;;;;;;1.50;1.00;;;;;12.07;86.33;99629.66;5078889;28;8836;-58
2024/01/24 01:39:05;;;;;;;;;3.00;3.00;;;;;12.17;86.10;99655.34;5079098;28;8862;-59
2024/01/24 01:41:32;;;;;;;;;1.50;1.50;;;;;12.29;86.82;99640.03;5078985;28;8831;-58
2024/01/24 01:44:00;;;;;;;;;5.00;4.00;;;;;12.38;85.74;99616.00;5078632;28;8832;-59
2024/01/24 01:46:28;;;;;;;;;3.25;1.00;;;;;12.50;85.50;99598.88;5078748;28;8953;-58
2024/01/24 01:48:55;;;;;;;;;2.00;1.00;;;;;12.57;85.13;99617.81;5079251;28;8832;-57
2024/01/24 01:51:23;;;;;;;;;3.00;3.00;;;;;12.65;85.88;99596.56;5078298;28;8874;-58
2024/01/24 01:53:51;;;;;;;;;5.00;4.00;;;;;12.70;84.65;99597.00;5077636;28;8832;-59
2024/01/24 01:56:19;;;;;;;;;0.50;0.00;;;;;12.76;84.87;99612.47;5078655;28;8812;-58
2024/01/24 01:58:47;;;;;;;;;6.00;4.00;;;;;12.77;84.80;99590.91;5078430;28;8852;-56
2024/01/24 02:01:14;;;;;;;;;4.00;3.25;;;;;12.81;84.57;99599.50;5078308;28;8975;-58
2024/01/24 02:03:42;;;;;;;;;3.50;3.25;;;;;12.83;84.54;99629.59;5078041;28;8824;-58
2024/01/24 02:06:10;;;;;;;;;1.00;0.00;;;;;12.89;84.32;99592.44;5078990;28;8820;-59
2024/01/24 02:08:39;;;;;;;;;1.00;1.00;;;;;12.94;84.77;99594.69;5094522;28;8814;-56
2024/01/24 02:11:07;;;;;;;;;2.50;2.50;;;;;12.99;84.21;99568.41;5098009;28;8810;-58
2024/01/24 02:13:35;;;;;;;;;1.50;1.50;;;;;13.02;84.12;99576.13;5098160;28;8852;-58
2024/01/24 02:16:03;;;;;;;;;2.00;1.00;;;;;13.05;84.28;99581.19;5101681;28;8842;-59
2024/01/24 02:18:31;;;;;;;;;3.00;3.00;;;;;13.07;84.35;99587.22;5112898;28;8866;-56
2024/01/24 02:20:58;;;;;;;;;1.00;1.00;;;;;13.02;84.00;99597.50;5117169;28;8957;-58
2024/01/24 02:23:26;;;;;;;;;1.00;1.00;;;;;12.87;83.88;99604.25;5082225;28;9517;-58
2024/01/24 02:25:54;;;;;;;;;2.00;2.00;;;;;12.69;84.85;99579.28;5078174;28;8891;-57
2024/01/24 02:28:22;;;;;;;;;1.00;1.00;;;;;12.55;85.72;99588.56;5078036;28;8812;-58
2024/01/24 02:30:49;;;;;;;;;0.00;0.00;;;;;12.45;85.25;99590.44;5077986;28;8828;-58
2024/01/24 02:33:17;;;;;;;;;3.00;3.00;;;;;12.37;85.13;99594.78;5082786;28;8808;-59
2024/01/24 02:35:45;;;;;;;;;1.00;1.00;;;;;12.29;85.58;99587.50;5117569;28;9505;-58
2024/01/24 02:38:13;;;;;;;;;1.00;1.00;;;;;12.24;86.37;99618.28;5118129;28;9486;-59
2024/01/24 02:40:41;;;;;;;;;1.00;1.00;;;;;12.19;86.69;99593.81;5081680;28;8926;-59
2024/01/24 02:43:08;;;;;;;;;1.00;1.00;;;;;12.16;86.68;99610.94;5076603;28;8839;-57
2024/01/24 02:45:36;;;;;;;;;1.00;1.00;;;;;12.14;86.52;99598.72;5076875;28;8824;-56
2024/01/24 02:48:04;;;;;;;;;1.50;1.50;;;;;12.12;86.29;99585.53;5077045;28;8860;-58
2024/01/24 02:50:32;;;;;;;;;2.00;2.00;;;;;12.09;86.68;99575.13;5077271;28;8820;-58
2024/01/24 02:53:00;;;;;;;;;1.00;1.00;;;;;12.06;86.87;99548.72;5076836;28;8832;-59
2024/01/24 02:55:29;;;;;;;;;1.00;1.00;;;;;12.06;87.08;99566.56;5076743;28;8846;-58
2024/01/24 02:57:57;;;;;;;;;0.50;0.00;;;;;12.05;87.23;99556.88;5076902;28;8844;-58
2024/01/24 03:00:24;;;;;;;;;2.00;1.00;;;;;12.06;86.91;99579.91;5076573;28;8835;-58
2024/01/24 03:02:52;;;;;;;;;1.00;1.00;;;;;12.06;86.81;99569.22;5076884;28;8871;-56
2024/01/24 03:05:20;;;;;;;;;3.00;3.00;;;;;12.04;87.05;99547.19;5077580;28;8842;-58
2024/01/24 03:07:48;;;;;;;;;1.00;1.00;;;;;12.04;87.50;99561.38;5078583;28;8832;-56
2024/01/24 03:10:15;;;;;;;;;1.00;1.00;;;;;12.05;87.67;99554.19;5097171;28;8960;-57
2024/01/24 03:12:43;;;;;;;;;1.00;1.00;;;;;12.06;87.49;99548.72;5096330;28;8810;-56
2024/01/24 03:15:11;;;;;;;;;0.50;0.50;;;;;12.07;87.25;99554.91;5097433;28;8943;-57
2024/01/24 03:17:39;;;;;;;;;3.00;2.00;;;;;12.13;87.39;99523.16;5096180;28;8961;-57
2024/01/24 03:20:07;;;;;;;;;0.75;0.75;;;;;12.19;87.21;99527.94;5095923;28;8928;-56
2024/01/24 03:22:35;;;;;;;;;2.00;1.00;;;;;12.30;87.25;99529.59;5095639;28;8818;-57
2024/01/24 03:25:02;;;;;;;;;1.50;1.50;;;;;12.46;87.00;99543.22;5096812;28;8806;-57
2024/01/24 03:27:30;;;;;;;;;1.00;1.00;;;;;12.61;86.08;99560.47;5096853;28;8826;-57
2024/01/24 03:29:58;;;;;;;;;0.00;0.00;;;;;12.71;86.54;99529.22;5096484;28;8838;-59
2024/01/24 03:32:26;;;;;;;;;0.00;0.00;;;;;12.78;85.36;99530.31;5096781;28;8954;-57
2024/01/24 03:34:53;;;;;;;;;0.00;0.00;;;;;12.81;85.58;99527.34;5096655;28;8817;-59
2024/01/24 03:37:22;;;;;;;;;1.00;1.00;;;;;12.83;85.51;99530.72;5095093;28;8803;-56
2024/01/24 03:39:49;;;;;;;;;0.00;0.00;;;;;12.78;85.64;99482.22;5105414;28;8846;-57
2024/01/24 03:42:17;;;;;;;;;0.00;0.00;;;;;12.72;85.59;99482.81;5117112;28;8844;-56
2024/01/24 03:44:45;;;;;;;;;0.00;0.00;;;;;12.69;85.25;99507.16;5104055;28;8919;-56
2024/01/24 03:47:13;;;;;;;;;0.25;0.00;;;;;12.73;85.97;99500.50;5091425;28;8870;-57
2024/01/24 03:49:40;;;;;;;;;0.00;0.00;;;;;12.76;85.35;99510.94;5076507;28;8846;-59
2024/01/24 03:52:08;;;;;;;;;0.25;0.25;;;;;12.74;85.46;99518.22;5076001;28;8832;-58
2024/01/24 03:54:36;;;;;;;;;1.00;0.00;;;;;12.72;85.29;99497.03;5076516;28;9529;-59
2024/01/24 03:57:04;;;;;;;;;0.00;0.00;;;;;12.68;85.38;99537.53;5103843;28;8827;-58
2024/01/24 03:59:32;;;;;;;;;0.00;0.00;;;;;12.64;85.70;99545.00;5116469;28;8820;-57
2024/01/24 04:02:00;;;;;;;;;0.00;0.00;;;;;12.62;85.65;99548.78;5116089;28;8812;-59
2024/01/24 04:04:27;;;;;;;;;0.00;0.00;;;;;12.59;86.04;99514.34;5100701;28;8840;-57
2024/01/24 04:06:55;;;;;;;;;0.00;0.00;;;;;12.54;85.80;99511.28;5075384;28;8847;-58
2024/01/24 04:09:23;;;;;;;;;0.00;0.00;;;;;12.52;86.04;99513.22;5090574;28;8824;-58
2024/01/24 04:11:51;;;;;;;;;0.00;0.00;;;;;12.48;86.16;99551.91;5095439;28;8822;-59
2024/01/24 04:14:18;;;;;;;;;0.00;0.00;;;;;12.42;86.17;99550.66;5095334;28;8818;-58
2024/01/24 04:16:46;;;;;;;;;0.50;0.00;;;;;12.38;86.65;99559.94;5094888;28;8866;-57
2024/01/24 04:19:15;;;;;;;;;0.00;0.00;;;;;12.35;86.53;99573.59;5095430;28;8829;-58
2024/01/24 04:21:44;;;;;;;;;0.00;0.00;;;;;12.33;86.57;99604.94;5085482;28;8835;-58
2024/01/24 04:24:11;;;;;;;;;0.00;0.00;;;;;12.31;86.86;99582.03;5075149;28;8851;-59
2024/01/24 04:26:39;;;;;;;;;0.00;0.00;;;;;12.30;86.85;99575.81;5074892;28;8925;-59
2024/01/24 04:29:07;;;;;;;;;0.00;0.00;;;;;12.29;86.99;99566.13;5074970;28;8832;-58
2024/01/24 04:31:40;;;;;;;;;0.00;0.00;;;;;12.28;87.47;99577.81;5075391;28;8858;-59
2024/01/24 04:34:07;;;;;;;;;0.00;0.00;;;;;12.27;87.38;99605.50;5100186;28;9717;-58
2024/01/24 04:36:35;;;;;;;;;0.00;0.00;;;;;12.26;87.39;99587.78;5102309;28;8818;-58
2024/01/24 04:39:03;;;;;;;;;0.00;0.00;;;;;12.25;87.20;99582.56;5100857;28;8915;-56
2024/01/24 04:41:31;;;;;;;;;0.00;0.00;;;;;12.22;86.92;99589.03;5101535;28;8829;-58
2024/01/24 04:43:59;;;;;;;;;0.00;0.00;;;;;12.17;87.55;99593.94;5101940;28;8822;-58
2024/01/24 04:46:26;;;;;;;;;0.00;0.00;;;;;12.09;87.63;99591.13;5102703;28;8866;-59
2024/01/24 04:48:54;;;;;;;;;0.00;0.00;;;;;12.07;87.42;99613.63;5101412;28;8929;-58
2024/01/24 04:51:23;;;;;;;;;0.00;0.00;;;;;12.11;87.42;99604.34;5102179;28;9608;-58
2024/01/24 04:53:51;;;;;;;;;0.00;0.00;;;;;12.16;87.25;99618.13;5105326;28;8814;-57
2024/01/24 04:56:19;;;;;;;;;0.00;0.00;;;;;12.24;86.81;99631.63;5101445;28;8814;-58
2024/01/24 04:58:46;;;;;;;;;0.00;0.00;;;;;12.18;86.99;99664.22;5105013;28;8911;-59
2024/01/24 05:01:14;;;;;;;;;0.00;0.00;;;;;12.09;86.60;99651.69;5118295;28;8860;-59
2024/01/24 05:03:42;;;;;;;;;0.00;0.00;;;;;12.02;86.87;99635.38;5119593;28;8826;-59
2024/01/24 05:06:10;;;;;;;;;0.00;0.00;;;;;11.95;87.17;99607.56;5101859;28;8944;-58
2024/01/24 05:08:38;;;;;;;;;0.00;0.00;;;;;11.92;86.87;99583.00;5102050;28;8802;-56
2024/01/24 05:11:06;;;;;;;;;0.00;0.00;;;;;11.94;86.73;99581.84;5101737;28;8908;-56
2024/01/24 05:13:34;;;;;;;;;0.00;0.00;;;;;11.99;86.34;99611.66;5084486;28;8844;-59
2024/01/24 05:16:01;;;;;;;;;0.00;0.00;;;;;12.03;86.31;99612.22;5089824;28;8808;-58
2024/01/24 05:18:29;;;;;;;;;0.00;0.00;;;;;12.09;86.06;99631.16;5122469;28;8857;-58
2024/01/24 05:20:57;;;;;;;;;0.00;0.00;;;;;12.15;85.87;99605.78;5123025;28;8832;-59
2024/01/24 05:23:25;;;;;;;;;0.00;0.00;;;;;12.20;85.54;99616.84;5122521;28;8839;-57
2024/01/24 05:25:53;;;;;;;;;0.00;0.00;;;;;12.23;84.93;99635.28;5122566;28;8877;-58
2024/01/24 05:28:21;;;;;;;;;0.00;0.00;;;;;12.26;85.36;99625.16;5122840;28;8824;-56
2024/01/24 05:30:48;;;;;;;;;0.00;0.00;;;;;12.34;84.79;99622.63;5083302;28;8844;-56
2024/01/24 05:33:16;;;;;;;;;0.00;0.00;;;;;12.42;84.80;99656.63;5080693;28;8916;-58
2024/01/24 05:35:45;;;;;;;;;0.00;0.00;;;;;12.44;84.20;99676.88;5080201;28;8839;-58
2024/01/24 05:38:13;;;;;;;;;0.00;0.00;;;;;12.44;84.39;99652.84;5081072;28;8992;-56
2024/01/24 05:40:41;;;;;;;;;0.00;0.00;;;;;12.44;84.05;99657.31;5081372;28;8847;-58
2024/01/24 05:43:08;;;;;;;;;0.00;0.00;;;;;12.44;84.02;99655.50;5080992;28;8925;-58
2024/01/24 05:45:36;;;;;;;;;0.00;0.00;;;;;12.43;84.33;99669.00;5077530;28;8847;-57
2024/01/24 05:48:04;;;;;;;;;0.00;0.00;;;;;12.42;83.81;99659.28;5077993;28;8820;-59
2024/01/24 05:50:32;;;;;;;;;0.00;0.00;;;;;12.43;83.40;99658.31;5077947;28;8828;-58
2024/01/24 05:53:00;;;;;;;;;0.00;0.00;;;;;12.41;83.42;99682.50;5085991;28;8810;-57
2024/01/24 05:55:28;;;;;;;;;0.00;0.00;;;;;12.42;83.07;99699.34;5098345;28;8968;-59
2024/01/24 05:57:56;;;;;;;;;0.00;0.00;;;;;12.38;83.02;99735.34;5097797;28;8826;-59
2024/01/24 06:00:23;;;;;;;;;0.25;0.00;;;;;12.38;82.74;99733.50;5098231;28;8886;-57
2024/01/24 06:02:51;;;;;;;;;0.00;0.00;;;;;12.39;82.71;99740.53;5097668;28;8817;-58
2024/01/24 06:05:19;;;;;;;;;0.00;0.00;;;;;12.39;82.92;99732.53;5098266;28;8847;-59
2024/01/24 06:07:49;;;;;;;;;0.00;0.00;;;;;12.40;82.14;99733.38;5100764;28;9467;-57
2024/01/24 06:10:17;;;;;;;;;0.00;0.00;;;;;12.43;82.03;99744.63;5107691;28;8829;-58
2024/01/24 06:12:45;;;;;;;;;0.00;0.00;;;;;12.47;81.36;99721.16;5096648;28;8806;-58
2024/01/24 06:15:13;;;;;;;;;0.50;0.00;;;;;12.48;81.57;99723.69;5100891;28;8820;-58
2024/01/24 06:17:41;;;;;;;;;2.00;1.00;;;;;12.47;81.41;99729.16;5097580;28;8853;-59
2024/01/24 06:20:10;;;;;;;;;0.00;0.00;;;;;12.44;80.88;99719.59;5096539;28;8903;-59
2024/01/24 06:22:37;;;;;;;;;1.50;0.00;;;;;12.44;80.94;99713.41;5097010;28;8822;-58
2024/01/24 06:25:07;;;;;;;;;0.25;0.25;;;;;12.47;80.34;99721.16;5096668;28;8825;-59
2024/01/24 06:27:35;;;;;;;;;1.00;0.50;;;;;12.50;80.27;99718.19;5094988;28;8821;-56
2024/01/24 06:30:04;;;;;;;;;1.00;1.00;;;;;12.51;79.82;99718.06;5094237;28;8968;-58
2024/01/24 06:32:49;;;;;;;;;0.50;0.00;;;;;12.53;79.67;99705.41;5096030;28;8856;-57
2024/01/24 06:35:17;;;;;;;;;0.25;0.25;;;;;12.51;79.37;99706.53;5097108;28;8829;-58
2024/01/24 06:37:45;;;;;;;;;3.00;1.50;;;;;12.51;79.64;99703.84;5096512;28;8849;-56
2024/01/24 06:40:14;;;;;;;;;2.50;2.50;;;;;12.48;79.86;99723.69;5095234;28;8829;-56
2024/01/24 06:42:42;;;;;;;;;0.00;0.00;;;;;12.46;79.05;99706.94;5096939;28;8849;-59
2024/01/24 06:45:09;;;;;;;;;0.00;0.00;;;;;12.44;79.03;99708.06;5095094;28;8818;-58
2024/01/24 06:47:37;;;;;;;;;0.00;0.00;;;;;12.42;79.17;99753.63;5094627;28;8926;-58
2024/01/24 06:50:07;;;;;;;;;1.00;1.00;;;;;12.41;78.79;99748.41;5095546;28;8832;-58
2024/01/24 06:52:35;;;;;;;;;0.50;0.50;;;;;12.43;78.62;99733.09;5098753;28;8948;-58
2024/01/24 06:55:03;;;;;;;;;1.50;0.75;;;;;12.45;78.57;99748.00;5099285;28;8853;-58
2024/01/24 06:57:31;;;;;;;;;0.00;0.00;;;;;12.47;78.13;99809.28;5095015;28;9549;-57
2024/01/24 06:59:59;;;;;;;;;0.00;0.00;;;;;12.48;77.14;99790.47;5095591;28;8876;-58
2024/01/24 07:02:27;;;;;;;;;0.25;0.00;;;;;12.47;77.09;99785.25;5095614;28;9557;-59
2024/01/24 07:04:55;;;;;;;;;0.75;0.75;;;;;12.43;77.56;99766.00;5098542;28;8830;-59
2024/01/24 07:07:23;;;;;;;;;0.00;0.00;;;;;12.41;77.48;99781.31;5094510;28;8837;-58
2024/01/24 07:09:51;;;;;;;;;1.50;0.50;;;;;12.42;77.04;99785.66;5093673;28;8818;-58
2024/01/24 07:12:20;;;;;;;;;0.00;0.00;;;;;12.40;77.20;99813.50;5093625;28;8840;-58
2024/01/24 07:14:48;;;;;;;;;0.00;0.00;;;;;12.33;77.30;99801.66;5102576;28;8818;-58
2024/01/24 07:17:19;;;;;;;;;0.50;0.25;;;;;12.20;77.38;99827.75;5094976;28;8862;-56
2024/01/24 07:19:47;;;;;;;;;1.50;1.50;;;;;12.11;77.66;99833.91;5107565;28;8831;-59
2024/01/24 07:22:16;;;;;;;;;2.50;2.50;;;;;11.98;77.84;99826.13;5115482;28;8851;-59
2024/01/24 07:24:44;;;;;;;;;1.00;0.50;;;;;11.87;78.18;99819.19;5116390;28;8854;-58
2024/01/24 07:27:12;;;;;;;;;3.00;2.00;;;;;11.81;78.08;99854.38;5115601;28;8901;-58
2024/01/24 07:29:40;;;;;;;;;3.00;0.75;;;;;11.80;78.52;99850.88;5078514;28;8920;-57
2024/01/24 07:32:08;;;;;;;;;0.00;0.00;;;;;11.80;78.21;99845.56;5104195;28;8816;-58
2024/01/24 07:34:38;;;;;;;;;0.00;0.00;;;;;11.85;78.74;99855.81;5115616;28;8831;-56
2024/01/24 07:37:07;;;;;;;;;0.00;0.00;;;;;11.92;78.27;99844.50;5114975;28;8831;-57
2024/01/24 07:39:35;;;;;;;;;0.50;0.50;;;;;11.97;77.67;99836.94;5115344;28;8839;-57
2024/01/24 07:42:03;;;;;;;;;0.00;0.00;;;;;11.98;77.79;99857.28;5115097;28;9485;-59
2024/01/24 07:44:31;;;;;;;;;0.50;0.00;;;;;11.75;77.67;99862.94;5114163;28;8966;-57
2024/01/24 07:47:01;;;;;;;;;1.00;1.00;;;;;11.41;79.23;99843.59;5074260;28;8875;-59
2024/01/24 07:49:29;;;;;;;;;0.75;0.75;;;;;11.22;79.87;99839.94;5073685;28;8836;-58
2024/01/24 07:51:58;;;;;;;;;0.00;0.00;;;;;11.14;79.54;99856.56;5072735;28;9498;-59
2024/01/24 07:54:26;;;;;;;;;0.25;0.00;;;;;11.13;79.02;99875.34;5073686;28;8925;-56
2024/01/24 07:56:54;;;;;;;;;0.50;0.50;;;;;11.15;78.91;99874.22;5073694;28;8832;-58
2024/01/24 07:59:23;;;;;;;;;3.25;2.25;;;;;11.05;79.67;99899.09;5073594;28;8844;-59
2024/01/24 08:01:51;;;;;;;;;1.00;1.00;;;;;10.77;80.11;99876.53;5074589;28;8854;-58
2024/01/24 08:04:19;;;;;;;;;3.50;3.50;;;;;10.57;80.97;99913.75;5073773;28;8986;-58
2024/01/24 08:06:47;;;;;;;;;2.50;2.50;;;;;10.43;80.88;99919.31;5073337;28;9771;-59
2024/01/24 08:09:17;;;;;;;;;1.00;1.00;;;;;10.32;80.94;99906.03;5093799;28;8818;-57
2024/01/24 08:11:46;;;;;;;;;1.00;1.00;;;;;10.26;81.78;99912.66;5094538;28;8841;-57
2024/01/24 08:14:14;;;;;;;;;1.00;1.00;;;;;10.25;81.43;99902.97;5094718;28;8948;-57
2024/01/24 08:16:42;;;;;;;;;0.25;0.25;;;;;10.35;81.51;99905.78;5093544;28;9682;-57
2024/01/24 08:19:10;;;;;;;;;1.00;1.00;;;;;10.49;81.08;99932.16;5093125;28;8988;-59
2024/01/24 08:21:38;;;;;;;;;1.00;1.00;;;;;10.63;80.30;99919.41;5095636;28;8830;-59
2024/01/24 08:24:06;;;;;;;;;1.00;1.00;;;;;10.75;79.92;99947.75;5094818;28;8837;-58
2024/01/24 08:26:34;;;;;;;;;1.00;0.00;;;;;10.82;79.40;99946.28;5094980;28;8834;-56
2024/01/24 08:29:02;;;;;;;;;0.75;0.75;;;;;10.88;79.24;99977.75;5092251;28;8803;-58
2024/01/24 08:31:30;;;;;;;;;2.50;1.50;;;;;10.94;79.11;99968.41;5096699;28;8936;-58
2024/01/24 08:33:58;;;;;;;;;1.00;0.00;;;;;10.97;78.93;99971.69;5117528;28;8828;-59
2024/01/24 08:36:28;;;;;;;;;1.00;0.75;;;;;11.01;78.45;99973.13;5116330;28;8823;-57
2024/01/24 08:38:57;;;;;;;;;2.00;2.00;;;;;11.05;78.55;99973.72;5116582;28;8854;-58
2024/01/24 08:41:25;;;;;;;;;0.75;0.75;;;;;11.10;78.64;99972.41;5115411;28;8820;-58
2024/01/24 08:43:57;;;;;;;;;0.50;0.50;;;;;11.19;77.51;99976.97;5114668;28;8828;-58
2024/01/24 08:46:24;;;;;;;;;0.25;0.00;;;;;11.29;78.02;99972.56;5114985;28;8836;-57
2024/01/24 08:48:52;;;;;;;;;0.50;0.50;;;;;11.36;77.67;99984.44;5108079;28;8948;-58
2024/01/24 08:51:21;;;;;;;;;0.75;0.25;;;;;11.39;77.45;99989.50;5094679;28;8879;-59
2024/01/24 08:53:49;;;;;;;;;1.00;1.00;;;;;11.42;77.73;99988.41;5094817;28;8814;-59
2024/01/24 08:56:16;;;;;;;;;2.00;2.00;;;;;11.45;77.00;100009.50;5093943;28;9487;-59
2024/01/24 08:58:44;;;;;;;;;6.00;4.00;;;;;11.51;76.71;100012.50;5092893;28;8930;-58
2024/01/24 09:01:12;;;;;;;;;3.00;3.00;;;;;11.60;76.66;100013.59;5094018;28;8829;-59
2024/01/24 09:03:40;;;;;;;;;0.50;0.50;;;;;11.68;76.46;100001.31;5094641;28;8961;-58
2024/01/24 09:06:10;;;;;;;;;2.25;0.75;;;;;11.73;76.18;100004.44;5094459;28;8845;-56
2024/01/24 09:08:39;;;;;;;;;1.00;0.25;;;;;11.74;76.02;100000.81;5093634;28;8918;-58
2024/01/24 09:11:07;;;;;;;;;2.50;2.50;;;;;11.75;75.50;100015.00;5093619;28;8848;-59
2024/01/24 09:13:35;;;;;;;;;7.00;4.00;;;;;11.74;75.38;100011.47;5093920;28;8838;-57
2024/01/24 09:16:03;;;;;;;;;3.50;3.00;;;;;11.78;74.52;100049.41;5092832;28;8828;-59
2024/01/24 09:18:31;;;;;;;;;1.00;0.75;;;;;11.84;74.75;100049.75;5093554;28;8856;-57
2024/01/24 09:21:01;;;;;;;;;3.50;1.50;;;;;11.93;74.36;100053.47;5096529;28;8854;-56
2024/01/24 09:23:29;;;;;;;;;3.00;2.50;;;;;11.99;73.56;100035.97;5098167;28;8984;-58
2024/01/24 09:25:57;;;;;;;;;1.00;1.00;;;;;12.02;73.57;100042.88;5098285;28;9503;-56
2024/01/24 09:28:25;;;;;;;;;0.00;0.00;;;;;11.98;72.95;100036.09;5098117;28;8838;-58
2024/01/24 09:30:53;;;;;;;;;3.00;3.00;;;;;11.93;73.29;100046.34;5098362;28;8822;-59
2024/01/24 09:33:21;;;;;;;;;1.00;1.00;;;;;11.88;73.56;100067.22;5098226;28;8906;-59
2024/01/24 09:35:49;;;;;;;;;5.00;3.50;;;;;11.85;73.46;100067.47;5097532;28;8846;-58
2024/01/24 09:38:17;;;;;;;;;3.25;2.75;;;;;11.82;73.08;100089.06;5097411;28;8814;-58
2024/01/24 09:40:45;;;;;;;;;0.00;0.00;;;;;11.79;72.59;100080.44;5097821;28;8846;-56
2024/01/24 09:43:13;;;;;;;;;0.25;0.25;;;;;11.76;72.82;100099.41;5097292;28;8834;-59
2024/01/24 09:45:43;;;;;;;;;3.75;2.75;;;;;11.75;72.72;100077.19;5097245;28;8826;-58
2024/01/24 09:48:11;;;;;;;;;3.00;1.00;;;;;11.77;72.36;100096.63;5097283;28;8984;-57
2024/01/24 09:50:39;;;;;;;;;1.00;0.00;;;;;11.76;72.38;100089.56;5096955;28;8845;-58
2024/01/24 09:53:09;;;;;;;;;0.00;0.00;;;;;11.78;72.04;100098.31;5097439;28;8906;-57
2024/01/24 09:55:37;;;;;;;;;3.25;3.25;;;;;11.78;72.44;100087.63;5096724;28;8813;-59
2024/01/24 09:58:05;;;;;;;;;1.00;1.00;;;;;11.76;71.98;100104.72;5096426;28;8826;-58
2024/01/24 10:00:36;;;;;;;;;1.00;0.50;;;;;11.74;71.43;100117.34;5096202;28;8845;-57
2024/01/24 10:03:04;;;;;;;;;0.75;0.50;;;;;11.74;71.98;100117.34;5096531;28;8873;-58
2024/01/24 10:05:32;;;;;;;;;0.50;0.50;;;;;11.72;71.03;100113.94;5096782;28;8822;-56
2024/01/24 10:08:00;;;;;;;;;0.00;0.00;;;;;11.71;71.40;100138.94;5095372;28;8861;-59
2024/01/24 10:10:28;;;;;;;;;1.50;0.00;;;;;11.69;71.39;100141.72;5095968;28;8834;-58
2024/01/24 10:12:56;;;;;;;;;0.00;0.00;;;;;11.68;71.32;100137.34;5096508;28;8838;-58
2024/01/24 10:15:24;;;;;;;;;0.50;0.50;;;;;11.69;71.32;100156.88;5096807;28;8976;-59
2024/01/24 10:17:52;;;;;;;;;0.50;0.00;;;;;11.68;71.47;100144.53;5096807;28;8874;-58
2024/01/24 10:20:25;;;;;;;;;1.00;1.00;;;;;11.68;71.19;100155.19;5096423;28;8926;-57
2024/01/24 10:22:53;;;;;;;;;3.25;3.00;;;;;11.67;70.91;100146.31;5095813;28;8825;-58
2024/01/24 10:25:21;;;;;;;;;1.00;1.00;;;;;11.65;71.03;100153.63;5096697;28;8841;-58
2024/01/24 10:27:49;;;;;;;;;1.00;1.00;;;;;11.64;71.01;100138.59;5096642;28;8970;-59
2024/01/24 10:30:17;;;;;;;;;0.00;0.00;;;;;11.64;71.11;100154.59;5095600;28;8830;-59
2024/01/24 10:32:46;;;;;;;;;0.00;0.00;;;;;11.63;71.05;100158.22;5096489;28;8830;-57
2024/01/24 10:35:16;;;;;;;;;2.50;2.50;;;;;11.63;70.79;100160.91;5095943;28;8818;-56
2024/01/24 10:37:44;;;;;;;;;2.50;2.50;;;;;11.63;71.44;100160.91;5095931;28;8853;-56
2024/01/24 10:40:13;;;;;;;;;0.00;0.00;;;;;11.63;70.34;100147.56;5096530;28;8822;-58
2024/01/24 10:42:41;;;;;;;;;1.00;1.00;;;;;11.65;71.20;100156.28;5095563;28;8830;-58
2024/01/24 10:45:10;;;;;;;;;1.00;0.75;;;;;11.66;71.03;100149.97;5095311;28;8854;-56
2024/01/24 10:47:38;;;;;;;;;1.00;1.00;;;;;11.69;70.49;100168.38;5096025;28;8947;-56
2024/01/24 10:50:05;;;;;;;;;3.50;3.50;;;;;11.72;70.82;100162.81;5096139;28;8842;-58
2024/01/24 10:52:33;;;;;;;;;2.50;2.00;;;;;11.73;71.03;100175.19;5096092;28;8842;-59
2024/01/24 10:55:03;;;;;;;;;0.00;0.00;;;;;11.74;70.59;100160.03;5096142;28;9577;-59
2024/01/24 10:57:32;;;;;;;;;1.00;1.00;;;;;11.72;70.42;100169.97;5094783;28;8850;-59
2024/01/24 11:00:00;;;;;;;;;0.00;0.00;;;;;11.71;70.52;100176.28;5094746;28;8829;-57
2024/01/24 11:02:28;;;;;;;;;0.00;0.00;;;;;11.70;70.65;100163.91;5094824;28;8830;-57
2024/01/24 11:04:56;;;;;;;;;1.00;1.00;;;;;11.68;70.46;100177.38;5093960;28;8840;-57
2024/01/24 11:07:24;;;;;;;;;6.50;5.00;;;;;11.66;70.45;100176.66;5094625;28;9515;-56
2024/01/24 11:09:53;;;;;;;;;1.00;1.00;;;;;11.66;70.69;100181.97;5094720;28;9557;-59
2024/01/24 11:12:21;;;;;;;;;3.00;1.00;;;;;11.66;70.84;100176.66;5095201;28;8830;-58
2024/01/24 11:14:51;;;;;;;;;1.00;1.00;;;;;11.67;70.83;100178.34;5094112;28;8822;-59
2024/01/24 11:17:19;;;;;;;;;4.25;2.75;;;;;11.67;71.00;100189.00;5094843;28;9609;-58
2024/01/24 11:19:47;;;;;;;;;2.00;1.50;;;;;11.67;70.46;100189.00;5095115;28;8818;-59
2024/01/24 11:22:16;;;;;;;;;0.75;0.00;;;;;11.67;70.21;100185.50;5094701;28;8840;-57
2024/01/24 11:24:56;;;;;;;;;1.00;0.50;;;;;11.66;70.26;100189.13;5094621;28;8838;-58
2024/01/24 11:27:24;;;;;;;;;3.50;3.50;;;;;11.63;70.26;100195.56;5095450;28;8914;-59
2024/01/24 11:29:52;;;;;;;;;3.00;3.00;;;;;11.63;70.27;100203.59;5095086;28;8934;-57
2024/01/24 11:32:20;;;;;;;;;1.75;1.50;;;;;11.64;70.38;100197.28;5095494;28;8841;-58
2024/01/24 11:34:48;;;;;;;;;2.50;1.50;;;;;11.65;69.99;100212.31;5095026;28;8975;-59
2024/01/24 11:37:16;;;;;;;;;3.25;3.00;;;;;11.64;69.61;100231.09;5095032;28;8825;-58
2024/01/24 11:39:45;;;;;;;;;4.00;3.25;;;;;11.62;70.38;100220.56;5094806;28;8872;-58
2024/01/24 11:42:13;;;;;;;;;1.50;1.50;;;;;11.61;69.60;100232.16;5094094;28;8837;-57